Flight Track Log - Related Links

Times and Time Zones

All times are in EDT time to prevent confusion due to time zone crossing. See the SWA1040 flight status page for this flight to view local times or setup timezone preferences in your user account.

Time Position Orientation Groundspeed Altitude Reporting Facility
EDT Latitude Longitude Course Direction KTS MPH feet Rate Location/Type
Sat 07:07:10 AM 41.7083 -71.4389 246° West 138 159 1,000  Level Boston Center
Sat 07:07:44 AM 41.6981 -71.4697 246° West 156 180 2,000 2,000 Climbing Boston Center
Sat 07:08:40 AM 41.6986 -71.5308 271° West 184 212 4,000 2,586 Climbing Boston Center
Sat 07:09:40 AM 41.7428 -71.5997 311° West 207 238 7,000 3,400 Climbing Boston Center
Sat 07:10:40 AM 41.7683 -71.6831 292° West 234 269 10,800 3,223 Climbing Boston Center
Sat 07:11:41 AM 41.7878 -71.7914 284° West 277 319 13,500 2,777 Climbing Boston Center
Sat 07:12:41 AM 41.7842 -71.9000 267° West 315 362 16,400 3,176 Climbing Boston Center
Sat 07:13:40 AM 41.7494 -72.0339 251° West 332 382 19,800 3,025 Climbing Boston Center
Sat 07:14:42 AM 41.7122 -72.1536 247° West 352 405 22,500 2,350 Climbing Boston Center
Sat 07:15:40 AM 41.6750 -72.2761 248° West 357 411 24,500 1,966 Climbing Boston Center
Sat 07:16:41 AM 41.6375 -72.4067 249° West 363 418 26,400 1,900 Climbing Boston Center
Sat 07:17:40 AM 41.5958 -72.5400 247° West 375 432 28,300 1,815 Climbing Boston Center
Sat 07:18:40 AM 41.5539 -72.6786 248° West 394 453 30,000 1,300 Climbing Boston Center
Sat 07:19:40 AM 41.5203 -72.7950 249° West 394 453 30,900 1,537 Climbing Boston Center
Sat 07:20:41 AM 41.4822 -72.9278 249° West 389 448 33,100 1,550 Climbing Boston Center
Sat 07:21:40 AM 41.4422 -73.0603 248° West 389 448 34,000 1,187 Climbing Boston Center
Sat 07:23:43 AM 41.3608 -73.3336 248° West 380 437 36,700 1,174 Climbing New York Center
Sat 07:24:44 AM 41.3206 -73.4592 247° West 380 437 37,600 1,008 Climbing New York Center
Sat 07:25:42 AM 41.2803 -73.5844 247° West 375 432 38,700 1,210 Climbing New York Center
Sat 07:26:43 AM 41.2169 -73.6950 233° Southwest 370 426 40,000 645 Climbing New York Center
Sat 07:27:43 AM 41.1517 -73.8050 232° Southwest 376 433 40,000  Level New York Center
Sat 07:28:44 AM 41.0864 -73.9150 232° Southwest 381 438 40,000  Level New York Center
Sat 07:29:44 AM 41.0231 -74.0275 233° Southwest 386 444 40,000  Level New York Center
Sat 07:30:42 AM 40.9575 -74.1342 231° Southwest 386 444 40,000  Level New York Center
Sat 07:31:43 AM 40.8942 -74.2297 229° Southwest 386 444 40,000  Level New York Center
Sat 07:32:44 AM 40.8286 -74.3361 231° Southwest 386 444 40,000  Level New York Center
Sat 07:33:44 AM 40.7628 -74.4450 231° Southwest 386 444 40,000  Level New York Center
Sat 07:34:42 AM 40.6969 -74.5511 231° Southwest 386 444 40,000  Level New York Center
Sat 07:35:42 AM 40.6308 -74.6622 232° Southwest 386 444 40,000  Level New York Center
Sat 07:36:43 AM 40.5606 -74.7703 229° Southwest 391 450 40,000  Level New York Center
Sat 07:37:42 AM 40.4794 -74.8883 228° Southwest 398 458 40,000  Level New York Center
Sat 07:38:43 AM 40.4067 -74.9958 228° Southwest 398 458 40,000  Level New York Center
Sat 07:39:44 AM 40.3342 -75.1003 228° Southwest 398 458 40,000  Level New York Center
Sat 07:40:42 AM 40.2575 -75.2042 226° Southwest 398 458 40,000  Level New York Center
Sat 07:41:43 AM 40.1825 -75.3108 227° Southwest 398 458 40,000  Level New York Center
Sat 07:42:43 AM 40.1075 -75.4172 227° Southwest 398 458 40,000  Level New York Center
Sat 07:43:44 AM 40.0303 -75.5206 226° Southwest 398 458 40,000  Level New York Center
Sat 07:44:44 AM 39.9531 -75.6289 227° Southwest 398 458 40,000  Level New York Center
Sat 07:45:42 AM 39.8797 -75.7375 229° Southwest 404 465 40,000  Level New York Center
Sat 07:46:44 AM 39.8103 -75.8514 232° Southwest 410 472 40,000  Level New York Center
Sat 07:47:44 AM 39.7408 -75.9625 231° Southwest 415 478 40,000  Level New York Center
Sat 07:49:45 AM 39.5975 -76.1867 230° Southwest 406 467 40,000  Level Washington Center
Sat 07:50:44 AM 39.5261 -76.2992 231° Southwest 406 467 40,000  Level Washington Center
Sat 07:51:45 AM 39.4525 -76.4086 229° Southwest 406 467 40,000  Level Washington Center
Sat 07:52:43 AM 39.3936 -76.4992 230° Southwest 406 467 40,000  Level Washington Center
Sat 07:53:44 AM 39.3111 -76.6242 230° Southwest 406 467 40,000  Level Washington Center
Sat 07:54:43 AM 39.2394 -76.7386 231° Southwest 406 467 40,000  Level Washington Center
Sat 07:55:45 AM 39.1653 -76.8553 231° Southwest 412 474 40,000  Level Washington Center
Sat 07:56:45 AM 39.0931 -76.9636 229° Southwest 417 480 40,000  Level Washington Center
Sat 07:57:43 AM 39.0128 -77.0742 227° Southwest 417 480 40,000  Level Washington Center
Sat 07:58:43 AM 38.9261 -77.1658 219° Southwest 412 474 40,000  Level Washington Center
Sat 07:59:43 AM 38.8372 -77.2625 220° Southwest 417 480 40,000  Level Washington Center
Sat 08:00:44 AM 38.7483 -77.3592 220° Southwest 417 480 40,000  Level Washington Center
Sat 08:01:45 AM 38.6569 -77.4581 220° Southwest 422 486 40,000  Level Washington Center
Sat 08:02:43 AM 38.5700 -77.5567 222° Southwest 422 486 40,000  Level Washington Center
Sat 08:03:43 AM 38.4786 -77.6550 220° Southwest 422 486 40,000  Level Washington Center
Sat 08:04:44 AM 38.3917 -77.7481 220° Southwest 422 486 40,000  Level Washington Center
Sat 08:05:44 AM 38.3022 -77.8458 221° Southwest 422 486 40,000  Level Washington Center
Sat 08:06:45 AM 38.2128 -77.9411 220° Southwest 422 486 40,000  Level Washington Center
Sat 08:07:43 AM 38.1233 -78.0358 220° Southwest 422 486 40,000  Level Washington Center
Sat 08:08:43 AM 38.0358 -78.1333 221° Southwest 417 480 40,000  Level Washington Center
Sat 08:09:45 AM 37.9419 -78.2275 218° Southwest 412 474 40,000  Level Washington Center
Sat 08:10:45 AM 37.8461 -78.3161 216° Southwest 417 480 40,000  Level Washington Center
Sat 08:11:42 AM 37.7544 -78.4047 217° Southwest 423 487 40,000  Level Washington Center
Sat 08:12:43 AM 37.6692 -78.4831 216° Southwest 429 494 40,000  Level Washington Center
Sat 08:13:43 AM 37.5753 -78.5711 217° Southwest 429 494 40,000  Level Washington Center
Sat 08:14:45 AM 37.4811 -78.6617 217° Southwest 429 494 40,000  Level Washington Center
Sat 08:15:45 AM 37.3831 -78.7492 215° Southwest 429 494 40,000  Level Washington Center
Sat 08:16:43 AM 37.2781 -78.8467 216° Southwest 429 494 40,000  Level Washington Center
Sat 08:17:43 AM 37.1817 -78.9364 217° Southwest 429 494 40,000  Level Washington Center
Sat 08:18:43 AM 37.0853 -79.0258 217° Southwest 435 501 40,000  Level Washington Center
Sat 08:19:45 AM 36.9908 -79.1153 217° Southwest 435 501 40,000  Level Washington Center
Sat 08:20:45 AM 36.8944 -79.2044 217° Southwest 435 501 40,000  Level Washington Center
Sat 08:21:43 AM 36.8064 -79.2833 216° Southwest 442 509 40,000  Level Washington Center
Sat 08:22:45 AM 36.7078 -79.3744 217° Southwest 442 509 40,000  Level Washington Center
Sat 08:23:43 AM 36.6111 -79.4603 215° Southwest 442 509 40,000  Level Washington Center
Sat 08:25:54 AM 36.3892 -79.6619 216° Southwest 447 514 40,000  Level Atlanta Center
Sat 08:26:54 AM 36.2942 -79.7497 217° Southwest 441 507 40,000  Level Atlanta Center
Sat 08:27:54 AM 36.1969 -79.8347 215° Southwest 441 507 40,000  Level Atlanta Center
Sat 08:28:54 AM 36.1019 -79.9217 216° Southwest 441 507 40,000  Level Atlanta Center
Sat 08:29:54 AM 36.0061 -79.9908 210° Southwest 441 507 40,000  Level Atlanta Center
Sat 08:30:54 AM 35.8933 -80.0503 203° Southwest 441 507 40,000  Level Atlanta Center
Sat 08:31:54 AM 35.7764 -80.1097 202° Southwest 452 520 40,000  Level Atlanta Center
Sat 08:32:54 AM 35.6614 -80.1689 203° Southwest 452 520 40,000  Level Atlanta Center
Sat 08:33:54 AM 35.5422 -80.2283 202° Southwest 452 520 40,000  Level Atlanta Center
Sat 08:34:54 AM 35.4272 -80.2869 203° Southwest 452 520 40,000  Level Atlanta Center
Sat 08:35:54 AM 35.3122 -80.3431 202° Southwest 452 520 40,000  Level Atlanta Center
Sat 08:36:54 AM 35.1969 -80.4017 203° Southwest 452 520 40,000  Level Atlanta Center
Sat 08:38:53 AM 34.9553 -80.5194 202° Southwest 446 513 40,000  Level Jacksonville Center
Sat 08:39:53 AM 34.8417 -80.5781 203° Southwest 451 519 40,000  Level Jacksonville Center
Sat 08:40:53 AM 34.7300 -80.6342 202° Southwest 440 506 40,000  Level Jacksonville Center
Sat 08:41:53 AM 34.6161 -80.6903 202° Southwest 440 506 40,000  Level Jacksonville Center
Sat 08:42:53 AM 34.4942 -80.7511 202° Southwest 463 533 40,000  Level Jacksonville Center
Sat 08:43:53 AM 34.3803 -80.8044 201° Southwest 451 519 40,000  Level Jacksonville Center
Sat 08:44:53 AM 34.2706 -80.8572 202° Southwest 445 512 40,000  Level Jacksonville Center
Sat 08:45:53 AM 34.1528 -80.9153 202° Southwest 437 503 40,000  Level Jacksonville Center
Sat 08:46:53 AM 34.0325 -80.9731 202° Southwest 450 518 40,000  Level Jacksonville Center
Sat 08:47:53 AM 33.9167 -81.0281 202° Southwest 455 524 40,000  Level Jacksonville Center
Sat 08:48:53 AM 33.8006 -81.0831 201° Southwest 455 524 40,000  Level Jacksonville Center
Sat 08:49:53 AM 33.6844 -81.1428 203° Southwest 449 517 40,000  Level Jacksonville Center
Sat 08:50:53 AM 33.5706 -81.1975 202° Southwest 449 517 40,000  Level Jacksonville Center
Sat 08:51:53 AM 33.4503 -81.2569 202° Southwest 455 524 40,000  Level Jacksonville Center
Sat 08:52:53 AM 33.3361 -81.3139 203° Southwest 455 524 40,000  Level Jacksonville Center
Sat 08:53:53 AM 33.2200 -81.3681 201° Southwest 455 524 40,000  Level Jacksonville Center
Sat 08:54:53 AM 33.1017 -81.4294 203° Southwest 455 524 40,000  Level Jacksonville Center
Sat 08:55:53 AM 32.9833 -81.4858 202° Southwest 455 524 40,000  Level Jacksonville Center
Sat 08:56:53 AM 32.8650 -81.5422 202° Southwest 455 524 40,000  Level Jacksonville Center
Sat 08:57:53 AM 32.7486 -81.5983 202° Southwest 455 524 40,000  Level Jacksonville Center
Sat 08:58:53 AM 32.6303 -81.6567 203° Southwest 455 524 40,000  Level Jacksonville Center
Sat 08:59:53 AM 32.5139 -81.7125 202° Southwest 455 524 40,000  Level Jacksonville Center
Sat 09:00:53 AM 32.4100 -81.7631 202° Southwest 455 524 40,000  Level Jacksonville Center
Sat 09:01:53 AM 32.2811 -81.8261 202° Southwest 455 524 40,000  Level Jacksonville Center
Sat 09:02:53 AM 32.1728 -81.8617 196° South 455 524 40,000  Level Jacksonville Center
Sat 09:03:53 AM 32.0331 -81.8878 189° South 456 525 40,000  Level Jacksonville Center
Sat 09:04:53 AM 31.9058 -81.9136 190° South 461 531 40,000  Level Jacksonville Center
Sat 09:05:53 AM 31.7933 -81.9344 189° South 467 537 40,000  Level Jacksonville Center
Sat 09:06:53 AM 31.6536 -81.9628 190° South 467 537 40,000  Level Jacksonville Center
Sat 09:07:53 AM 31.5433 -81.9858 190° South 462 532 40,000  Level Jacksonville Center
Sat 09:08:53 AM 31.4139 -82.0089 189° South 470 541 40,000  Level Jacksonville Center
Sat 09:09:53 AM 31.2742 -82.0394 191° South 465 535 40,000  Level Jacksonville Center
Sat 09:10:53 AM 31.1469 -82.0625 189° South 465 535 40,000  Level Jacksonville Center
Sat 09:11:53 AM 31.0219 -82.0878 190° South 465 535 40,000  Level Jacksonville Center
Sat 09:12:53 AM 30.8947 -82.1131 190° South 465 535 40,000 -100 Level Jacksonville Center
Sat 09:13:53 AM 30.7675 -82.1358 189° South 465 535 39,800 -600 Descending Jacksonville Center
Sat 09:14:53 AM 30.6422 -82.1608 190° South 465 535 38,800 -900 Descending Jacksonville Center
Sat 09:15:53 AM 30.5233 -82.1789 187° South 471 542 38,000 -400 Descending Jacksonville Center
Sat 09:16:53 AM 30.3961 -82.2014 189° South 471 542 38,000  Level Jacksonville Center
Sat 09:17:53 AM 30.2689 -82.2264 190° South 466 536 38,000 -150 Level Jacksonville Center
Sat 09:18:53 AM 30.1439 -82.2511 190° South 466 536 37,700 -1,400 Descending Jacksonville Center
Sat 09:19:53 AM 30.0208 -82.2736 189° South 461 531 35,200 -2,550 Descending Jacksonville Center
Sat 09:20:53 AM 29.8956 -82.3031 192° South 461 531 32,600 -2,450 Descending Jacksonville Center
Sat 09:21:53 AM 29.7725 -82.3278 190° South 461 531 30,300 -2,250 Descending Jacksonville Center
Sat 09:22:53 AM 29.6536 -82.3453 187° South 448 516 28,100 -2,250 Descending Jacksonville Center
Sat 09:23:53 AM 29.5367 -82.3531 183° South 436 502 25,800 -2,750 Descending Jacksonville Center
Sat 09:24:53 AM 29.4197 -82.3369 173° South 424 488 22,600 -3,100 Descending Jacksonville Center
Sat 09:25:53 AM 29.3028 -82.3233 174° South 424 488 19,600 -2,900 Descending Jacksonville Center
Sat 09:26:53 AM 29.1881 -82.3122 175° South 424 488 16,800 -2,750 Descending Jacksonville Center
Sat 09:27:53 AM 29.0753 -82.2986 174° South 419 482 14,100 -1,950 Descending Jacksonville Center
Sat 09:28:53 AM 28.9708 -82.2875 175° South 406 467 12,900 -600 Descending Jacksonville Center
Sat 09:29:53 AM 28.8808 -82.2761 174° South 370 426 12,900 33 Level Jacksonville Center
Sat 09:31:53 AM 28.7000 -82.2500 173° South 314 361 13,000 -300 Climbing Tampa TRACON
Sat 09:32:53 AM 28.6167 -82.2500 180° South 312 359 12,000 -1,211 Descending Tampa TRACON
Sat 09:33:47 AM 28.5333 -82.2500 180° South 312 359 10,700 -1,461 Descending Tampa TRACON
Sat 09:34:48 AM 28.4500 -82.2500 180° South 298 343 9,200 -1,465 Descending Tampa TRACON
Sat 09:35:54 AM 28.3667 -82.2500 180° South 289 333 7,600 -1,429 Descending Tampa TRACON
Sat 09:36:54 AM 28.3000 -82.3167 221° Southwest 270 311 6,200 -1,400 Descending Tampa TRACON
Sat 09:37:54 AM 28.2667 -82.3833 240° Southwest 262 302 4,800 -1,450 Descending Tampa TRACON
Sat 09:38:54 AM 28.2167 -82.4333 221° Southwest 260 299 3,300 -857 Descending Tampa TRACON
Sat 09:40:00 AM 28.1667 -82.5000 230° Southwest 227 261 3,000 -500 Descending Tampa TRACON
Sat 09:41:06 AM 28.1167 -82.5167 196° South 192 221 2,200 -714 Descending Tampa TRACON
Sat 09:42:06 AM 28.0667 -82.5333 196° South 168 193 1,500 -700 Descending Tampa TRACON
Sat 09:43:06 AM 28.0333 -82.5333 180° South 135 155 800 -700 Descending Tampa TRACON

Login

Don't have an account? Register now (free) for customized features, flight alerts, and more!